Time;durP1;ratioP1;P1;durP2;ratioP2;P2;SDS_P1;SDS_P2;PMS_P1;PMS_P2;Temp;Humidity;BMP_temperature;BMP_pressure;BME280_temperature;BME280_humidity;BME280_pressure;Samples;Min_cycle;Max_cycle;Signal;HPM_P1;HPM_P2
2024/03/06 00:02:13;;;;;;;87.57;41.33;;;7.90;99.90;;;;;;768110;186;28039;-78
2024/03/06 00:04:39;;;;;;;98.47;43.17;;;7.90;99.90;;;;;;770101;185;26659;-78
2024/03/06 00:07:06;;;;;;;91.73;44.00;;;7.90;99.90;;;;;;760612;189;26439;-78
2024/03/06 00:09:33;;;;;;;80.30;41.37;;;7.80;99.90;;;;;;763313;186;26494;-79
2024/03/06 00:11:59;;;;;;;90.83;44.30;;;7.80;99.90;;;;;;777747;183;26622;-79
2024/03/06 00:14:26;;;;;;;97.93;45.17;;;7.80;99.90;;;;;;758693;189;26444;-79
2024/03/06 00:16:55;;;;;;;97.50;46.33;;;7.70;99.90;;;;;;768606;184;26507;-79
2024/03/06 00:19:20;;;;;;;95.90;45.83;;;7.70;99.90;;;;;;775800;183;26476;-79
2024/03/06 00:21:46;;;;;;;99.97;46.17;;;7.70;99.90;;;;;;757227;189;26551;-79
2024/03/06 00:24:13;;;;;;;98.47;44.93;;;7.70;99.90;;;;;;768721;186;26510;-79
2024/03/06 00:26:41;;;;;;;93.60;45.83;;;7.70;99.90;;;;;;770983;183;26475;-79
2024/03/06 00:29:08;;;;;;;95.67;45.90;;;7.70;99.90;;;;;;757082;189;26516;-78
2024/03/06 00:31:35;;;;;;;103.10;48.10;;;7.80;99.90;;;;;;772698;186;26579;-79
2024/03/06 00:34:01;;;;;;;99.17;45.53;;;7.80;99.90;;;;;;768993;186;27056;-78
2024/03/06 00:36:28;;;;;;;94.53;46.00;;;7.80;99.90;;;;;;773782;183;26500;-78
2024/03/06 00:38:54;;;;;;;97.80;46.37;;;7.80;99.90;;;;;;757162;189;27031;-78
2024/03/06 00:41:21;;;;;;;84.17;44.17;;;7.90;99.90;;;;;;768553;183;26533;-78
2024/03/06 00:43:48;;;;;;;81.10;42.13;;;7.90;99.90;;;;;;757138;189;26604;-78
2024/03/06 00:46:14;;;;;;;102.50;46.40;;;7.90;99.90;;;;;;764003;185;26682;-79
2024/03/06 00:48:41;;;;;;;94.87;44.97;;;7.90;99.90;;;;;;758151;187;26452;-78
2024/03/06 00:51:07;;;;;;;100.20;45.43;;;7.90;99.90;;;;;;771067;186;26411;-79
2024/03/06 00:53:35;;;;;;;98.67;47.07;;;7.90;99.90;;;;;;771491;186;26532;-79
2024/03/06 00:56:01;;;;;;;95.57;46.07;;;7.90;99.90;;;;;;771983;183;26624;-79
2024/03/06 00:58:28;;;;;;;90.53;43.40;;;7.90;99.90;;;;;;773570;180;26513;-79
2024/03/06 01:00:54;;;;;;;93.03;44.90;;;7.80;99.90;;;;;;774635;180;26412;-79
2024/03/06 01:03:21;;;;;;;89.57;43.47;;;7.80;99.90;;;;;;761364;177;26497;-79
2024/03/06 01:05:48;;;;;;;94.43;44.80;;;7.80;99.90;;;;;;778061;181;26540;-79
2024/03/06 01:08:17;;;;;;;95.63;45.80;;;7.70;99.90;;;;;;757985;189;26482;-78
2024/03/06 01:10:41;;;;;;;95.70;46.10;;;7.70;99.90;;;;;;762709;187;26508;-79
2024/03/06 01:13:10;;;;;;;108.43;47.73;;;7.70;99.90;;;;;;759204;187;26495;-78
2024/03/06 01:15:34;;;;;;;105.87;47.67;;;7.60;99.90;;;;;;777618;181;26492;-79
2024/03/06 01:18:01;;;;;;;92.13;43.43;;;7.50;99.90;;;;;;760410;188;26545;-80
2024/03/06 01:20:27;;;;;;;89.83;43.87;;;7.50;99.90;;;;;;770435;186;26491;-79
2024/03/06 01:22:54;;;;;;;97.70;44.03;;;7.50;99.90;;;;;;765204;186;26490;-79
2024/03/06 01:25:20;;;;;;;92.97;43.67;;;7.40;99.90;;;;;;778233;181;26494;-79
2024/03/06 01:27:50;;;;;;;94.70;43.10;;;7.40;99.90;;;;;;776354;184;26509;-79
2024/03/06 01:30:16;;;;;;;91.53;43.30;;;7.40;99.90;;;;;;779163;184;26470;-80
2024/03/06 01:32:43;;;;;;;85.50;42.20;;;7.30;99.90;;;;;;760973;183;26539;-80
2024/03/06 01:35:09;;;;;;;82.17;40.00;;;7.20;99.90;;;;;;771628;183;26528;-79
2024/03/06 01:37:36;;;;;;;83.33;40.23;;;7.20;99.90;;;;;;770558;186;26531;-80
2024/03/06 01:40:04;;;;;;;100.47;41.83;;;7.10;99.90;;;;;;769547;183;26541;-78
2024/03/06 01:42:29;;;;;;;118.27;47.87;;;7.10;99.90;;;;;;773641;183;26635;-78
2024/03/06 01:44:56;;;;;;;145.50;57.57;;;7.10;99.90;;;;;;757445;189;26587;-78
2024/03/06 01:47:23;;;;;;;109.77;46.47;;;7.10;99.90;;;;;;767732;186;27059;-79
2024/03/06 01:49:49;;;;;;;118.47;50.27;;;7.10;99.90;;;;;;767207;186;26487;-78
2024/03/06 01:52:16;;;;;;;136.63;57.23;;;7.10;99.90;;;;;;759204;189;26541;-80
2024/03/06 01:54:42;;;;;;;110.70;48.37;;;7.10;99.90;;;;;;764728;187;27071;-79
2024/03/06 01:57:09;;;;;;;98.90;45.10;;;7.00;99.90;;;;;;774081;184;26473;-79
2024/03/06 01:59:36;;;;;;;109.33;45.60;;;7.00;99.90;;;;;;775013;183;26489;-79
2024/03/06 02:02:02;;;;;;;97.33;42.67;;;7.00;99.90;;;;;;773382;186;26574;-78
2024/03/06 02:04:29;;;;;;;97.73;44.23;;;7.10;99.90;;;;;;764608;186;26493;-80
2024/03/06 02:06:55;;;;;;;95.80;44.63;;;7.10;99.90;;;;;;780136;184;26483;-80
2024/03/06 02:09:23;;;;;;;109.47;46.13;;;7.10;99.90;;;;;;759449;189;26529;-78
2024/03/06 02:11:50;;;;;;;110.93;46.83;;;7.10;99.90;;;;;;773780;186;26416;-80
2024/03/06 02:14:15;;;;;;;122.23;48.47;;;7.10;99.90;;;;;;764438;186;26491;-79
2024/03/06 02:16:42;;;;;;;104.90;46.57;;;7.00;99.90;;;;;;772696;184;26647;-79
2024/03/06 02:19:09;;;;;;;105.93;45.57;;;7.00;99.90;;;;;;759528;189;26435;-79
2024/03/06 02:21:36;;;;;;;99.67;45.30;;;7.00;99.90;;;;;;762725;186;26520;-79
2024/03/06 02:24:02;;;;;;;107.90;44.60;;;7.00;99.90;;;;;;778623;184;26483;-79
2024/03/06 02:26:29;;;;;;;105.17;45.70;;;6.90;99.90;;;;;;756589;189;26690;-78
2024/03/06 02:28:56;;;;;;;106.83;47.40;;;7.00;99.90;;;;;;762425;185;26508;-78
2024/03/06 02:31:22;;;;;;;109.33;46.63;;;7.10;99.90;;;;;;774187;184;26512;-78
2024/03/06 02:33:49;;;;;;;100.60;44.17;;;7.20;99.90;;;;;;778822;184;26484;-80
2024/03/06 02:36:17;;;;;;;89.73;44.23;;;7.30;99.90;;;;;;759627;189;26527;-78
2024/03/06 02:38:44;;;;;;;94.47;43.30;;;7.30;99.90;;;;;;759604;186;26516;-80
2024/03/06 02:41:11;;;;;;;83.07;41.53;;;7.40;99.90;;;;;;768067;187;26503;-79
2024/03/06 02:43:37;;;;;;;89.00;41.23;;;7.50;99.90;;;;;;770085;187;26513;-79
2024/03/06 02:46:04;;;;;;;85.43;41.30;;;7.50;99.90;;;;;;768619;184;26526;-79
2024/03/06 02:48:30;;;;;;;82.77;40.20;;;7.50;99.90;;;;;;768163;187;26516;-78
2024/03/06 02:50:57;;;;;;;74.93;37.97;;;7.50;99.90;;;;;;767872;187;26500;-79
2024/03/06 02:53:25;;;;;;;66.13;36.00;;;7.50;99.90;;;;;;769309;187;26516;-79
2024/03/06 02:55:50;;;;;;;71.50;36.23;;;7.50;99.90;;;;;;767312;187;26511;-79
2024/03/06 02:58:17;;;;;;;73.77;37.10;;;7.50;99.90;;;;;;767004;184;26512;-79
2024/03/06 03:00:43;;;;;;;64.80;34.57;;;7.50;99.90;;;;;;774058;183;26530;-78
2024/03/06 03:03:11;;;;;;;69.47;35.40;;;7.50;99.90;;;;;;758604;189;26511;-79
2024/03/06 03:05:43;;;;;;;71.73;36.57;;;7.50;99.90;;;;;;775376;173;26569;-75
2024/03/06 03:08:09;;;;;;;78.10;35.90;;;7.50;99.90;;;;;;813113;172;26412;-80
2024/03/06 03:10:36;;;;;;;77.13;35.83;;;7.50;99.90;;;;;;828254;171;26473;-79
2024/03/06 03:13:04;;;;;;;69.77;36.73;;;7.50;99.90;;;;;;833743;171;26549;-80
2024/03/06 03:15:30;;;;;;;73.83;36.70;;;7.50;99.90;;;;;;836867;171;26428;-80
2024/03/06 03:17:56;;;;;;;72.30;36.33;;;7.50;99.90;;;;;;817120;174;26986;-81
2024/03/06 03:20:23;;;;;;;72.63;35.73;;;7.40;99.90;;;;;;818984;174;26406;-81
2024/03/06 03:22:49;;;;;;;77.87;39.77;;;7.40;99.90;;;;;;814799;174;26835;-80
2024/03/06 03:25:16;;;;;;;84.40;40.23;;;7.40;99.90;;;;;;810491;174;26451;-80
2024/03/06 03:27:44;;;;;;;91.80;42.30;;;7.40;99.90;;;;;;817659;174;27083;-82
2024/03/06 03:30:11;;;;;;;91.20;41.97;;;7.30;99.90;;;;;;816084;173;26418;-80
2024/03/06 03:32:37;;;;;;;98.90;43.00;;;7.10;99.90;;;;;;815326;174;26429;-81
2024/03/06 03:35:05;;;;;;;92.77;41.33;;;7.00;99.90;;;;;;816244;174;26405;-81
2024/03/06 03:37:31;;;;;;;90.93;41.33;;;7.00;99.90;;;;;;816422;174;26433;-81
2024/03/06 03:39:57;;;;;;;93.83;42.60;;;6.90;99.90;;;;;;815102;174;26402;-81
2024/03/06 03:42:24;;;;;;;78.77;38.57;;;6.80;99.90;;;;;;828603;173;26542;-80
2024/03/06 03:44:51;;;;;;;92.27;40.60;;;6.80;99.90;;;;;;819582;173;26790;-79
2024/03/06 03:47:17;;;;;;;93.23;41.27;;;6.80;99.90;;;;;;822964;173;26465;-80
2024/03/06 03:49:44;;;;;;;85.30;39.47;;;6.70;99.90;;;;;;819160;174;26980;-81
2024/03/06 03:52:12;;;;;;;99.47;41.17;;;6.70;99.90;;;;;;822547;172;26393;-81
2024/03/06 03:54:37;;;;;;;88.53;39.33;;;6.60;99.90;;;;;;803576;177;26408;-81
2024/03/06 03:57:04;;;;;;;104.90;45.87;;;6.50;99.90;;;;;;798375;178;26452;-81
2024/03/06 03:59:31;;;;;;;105.63;43.27;;;6.60;99.90;;;;;;798928;177;26419;-81
2024/03/06 04:01:57;;;;;;;103.70;43.67;;;6.70;99.90;;;;;;795341;177;26544;-81
2024/03/06 04:04:24;;;;;;;95.10;40.33;;;6.70;99.90;;;;;;805557;177;26402;-81
2024/03/06 04:06:51;;;;;;;93.83;41.43;;;6.60;99.90;;;;;;801734;176;26449;-81
2024/03/06 04:09:17;;;;;;;97.23;41.17;;;6.60;99.90;;;;;;806607;176;26406;-81
2024/03/06 04:11:44;;;;;;;98.70;42.73;;;6.60;99.90;;;;;;804491;177;26409;-81
2024/03/06 04:14:10;;;;;;;88.97;39.23;;;6.60;99.90;;;;;;804984;177;26403;-79
2024/03/06 04:16:38;;;;;;;82.90;35.93;;;6.60;99.90;;;;;;804552;177;26571;-78
2024/03/06 04:19:04;;;;;;;76.60;37.07;;;6.60;99.90;;;;;;804395;175;26401;-81
2024/03/06 04:21:30;;;;;;;59.17;31.33;;;6.50;99.90;;;;;;799695;176;26536;-81
2024/03/06 04:23:58;;;;;;;43.73;23.87;;;6.60;99.90;;;;;;806366;176;26419;-82
2024/03/06 04:26:23;;;;;;;43.40;22.23;;;6.60;99.90;;;;;;802289;177;26450;-81
2024/03/06 04:28:50;;;;;;;36.77;22.13;;;6.60;99.90;;;;;;803994;176;26567;-81
2024/03/06 04:31:17;;;;;;;26.70;16.30;;;6.60;99.90;;;;;;805282;177;26396;-81
2024/03/06 04:33:43;;;;;;;24.07;15.00;;;6.60;99.90;;;;;;804024;176;26415;-81
2024/03/06 04:36:10;;;;;;;22.43;13.93;;;6.60;99.90;;;;;;799423;173;26447;-81
2024/03/06 04:38:37;;;;;;;19.80;13.53;;;6.60;99.90;;;;;;798390;177;26421;-81
2024/03/06 04:41:03;;;;;;;16.90;11.03;;;6.50;99.90;;;;;;803094;176;26409;-81
2024/03/06 04:43:30;;;;;;;19.07;11.57;;;6.50;99.90;;;;;;800529;176;26423;-81
2024/03/06 04:45:57;;;;;;;16.83;9.97;;;6.40;99.90;;;;;;797344;176;26507;-80
2024/03/06 04:48:23;;;;;;;15.73;10.10;;;6.40;99.90;;;;;;805476;177;26398;-81
2024/03/06 04:50:50;;;;;;;17.10;10.97;;;6.30;99.90;;;;;;804820;176;26950;-80
2024/03/06 04:53:17;;;;;;;16.50;10.20;;;6.40;99.90;;;;;;806096;176;26402;-77
2024/03/06 04:55:43;;;;;;;18.07;9.00;;;6.30;99.90;;;;;;808275;177;26447;-78
2024/03/06 04:58:10;;;;;;;12.67;8.30;;;6.30;99.90;;;;;;806298;176;26386;-83
2024/03/06 05:00:37;;;;;;;18.20;7.97;;;6.30;99.90;;;;;;801765;177;27030;-82
2024/03/06 05:03:03;;;;;;;11.63;7.57;;;6.30;99.90;;;;;;803233;176;26416;-84
2024/03/06 05:05:30;;;;;;;12.10;7.67;;;6.30;99.90;;;;;;801502;176;26418;-84
2024/03/06 05:07:57;;;;;;;9.43;6.53;;;6.20;99.90;;;;;;803757;177;26406;-79
2024/03/06 05:10:23;;;;;;;9.93;5.37;;;6.20;99.90;;;;;;803187;177;26407;-83
2024/03/06 05:12:50;;;;;;;14.40;6.43;;;6.20;99.90;;;;;;800033;177;26419;-81
2024/03/06 05:15:19;;;;;;;8.83;6.33;;;6.20;99.90;;;;;;810140;177;26419;-81
2024/03/06 05:17:44;;;;;;;11.17;6.50;;;6.30;99.90;;;;;;798773;177;26459;-81
2024/03/06 05:20:10;;;;;;;10.90;6.47;;;6.30;99.90;;;;;;795977;177;26408;-80
2024/03/06 05:22:37;;;;;;;12.93;6.60;;;6.40;99.90;;;;;;808447;176;26425;-78
2024/03/06 05:25:05;;;;;;;10.17;6.03;;;6.50;99.90;;;;;;803672;177;26399;-79
2024/03/06 05:27:30;;;;;;;9.53;6.33;;;6.60;99.90;;;;;;800501;177;26975;-80
2024/03/06 05:29:57;;;;;;;9.80;6.50;;;6.70;99.90;;;;;;804158;177;26567;-79
2024/03/06 05:32:23;;;;;;;11.10;6.53;;;6.70;99.90;;;;;;808295;177;26581;-81
2024/03/06 05:34:50;;;;;;;8.90;6.27;;;6.60;99.90;;;;;;807484;177;26948;-81
2024/03/06 05:37:17;;;;;;;10.83;6.80;;;6.50;99.90;;;;;;806197;177;26449;-81
2024/03/06 05:39:43;;;;;;;11.77;7.10;;;6.50;99.90;;;;;;802387;175;26416;-81
2024/03/06 05:42:10;;;;;;;10.57;7.30;;;6.40;99.90;;;;;;810693;177;26427;-81
2024/03/06 05:44:36;;;;;;;12.00;7.13;;;6.30;99.90;;;;;;803931;177;26440;-82
2024/03/06 05:47:03;;;;;;;9.33;7.00;;;6.30;99.90;;;;;;806622;177;26431;-77
2024/03/06 05:49:30;;;;;;;11.33;7.27;;;6.20;99.90;;;;;;802930;177;26412;-80
2024/03/06 05:51:56;;;;;;;13.20;7.60;;;6.20;99.90;;;;;;799450;177;26423;-81
2024/03/06 05:54:23;;;;;;;13.23;8.93;;;6.30;99.90;;;;;;801752;177;26417;-80
2024/03/06 05:56:51;;;;;;;11.43;7.93;;;6.20;99.90;;;;;;800636;174;26438;-81
2024/03/06 05:59:17;;;;;;;13.67;8.43;;;6.20;99.90;;;;;;802094;177;26410;-79
2024/03/06 06:01:44;;;;;;;14.87;9.60;;;6.10;99.90;;;;;;801865;174;26437;-81
2024/03/06 06:04:10;;;;;;;13.20;8.67;;;6.10;99.90;;;;;;806307;176;26425;-80
2024/03/06 06:06:36;;;;;;;11.57;7.83;;;6.00;99.90;;;;;;803342;177;26970;-78
2024/03/06 06:09:06;;;;;;;11.83;8.67;;;6.00;99.90;;;;;;806494;176;26423;-80
2024/03/06 06:11:33;;;;;;;15.83;8.93;;;6.10;99.90;;;;;;805373;176;26499;-79
2024/03/06 06:13:59;;;;;;;13.67;8.03;;;6.10;99.90;;;;;;803994;176;26582;-81
2024/03/06 06:16:25;;;;;;;11.27;8.70;;;6.00;99.90;;;;;;802423;177;26444;-79
2024/03/06 06:18:52;;;;;;;14.57;8.80;;;6.00;99.90;;;;;;803542;176;26411;-81
2024/03/06 06:21:19;;;;;;;11.50;9.00;;;5.90;99.90;;;;;;810097;176;26429;-81
2024/03/06 06:23:45;;;;;;;14.20;8.47;;;5.80;99.90;;;;;;806741;177;26527;-79
2024/03/06 06:26:12;;;;;;;12.10;8.97;;;5.80;99.90;;;;;;804900;177;26462;-81
2024/03/06 06:28:38;;;;;;;17.77;10.43;;;5.80;99.90;;;;;;809528;175;26406;-81
2024/03/06 06:31:05;;;;;;;16.97;9.47;;;5.80;99.90;;;;;;796266;177;26608;-77
2024/03/06 06:33:31;;;;;;;17.43;10.43;;;5.90;99.90;;;;;;802898;177;26984;-81
2024/03/06 06:35:58;;;;;;;17.90;10.60;;;5.90;99.90;;;;;;807821;176;26533;-82
2024/03/06 06:38:25;;;;;;;23.97;11.83;;;6.00;99.90;;;;;;797279;177;26550;-80
2024/03/06 06:40:52;;;;;;;16.90;10.07;;;6.00;99.90;;;;;;804474;177;27033;-81
2024/03/06 06:43:18;;;;;;;16.27;9.93;;;6.00;99.90;;;;;;807878;176;26415;-82
2024/03/06 06:45:45;;;;;;;20.43;9.77;;;6.00;99.90;;;;;;803211;177;26427;-78
2024/03/06 06:48:12;;;;;;;15.20;8.83;;;6.00;99.90;;;;;;802662;177;26516;-79
2024/03/06 06:50:38;;;;;;;12.67;8.67;;;6.00;99.90;;;;;;803876;178;28038;-80
2024/03/06 06:53:05;;;;;;;15.87;9.10;;;6.00;99.90;;;;;;807634;177;26555;-80
2024/03/06 06:55:32;;;;;;;17.13;10.50;;;6.00;99.90;;;;;;821074;175;26432;-77
2024/03/06 06:57:59;;;;;;;19.77;10.40;;;6.00;99.90;;;;;;820013;173;26410;-79
2024/03/06 07:00:26;;;;;;;14.43;8.67;;;6.00;99.90;;;;;;811254;173;26450;-79
2024/03/06 07:02:52;;;;;;;11.53;8.00;;;6.00;99.90;;;;;;822449;174;26560;-79
2024/03/06 07:05:19;;;;;;;13.20;8.10;;;6.00;99.90;;;;;;821284;174;27187;-78
2024/03/06 07:07:46;;;;;;;14.20;7.47;;;6.00;99.90;;;;;;816387;174;26451;-78
2024/03/06 07:10:13;;;;;;;14.73;9.53;;;6.00;99.90;;;;;;815711;174;26408;-80
2024/03/06 07:12:39;;;;;;;17.40;10.30;;;6.10;99.90;;;;;;819678;174;26421;-80
2024/03/06 07:15:06;;;;;;;13.27;8.17;;;6.10;99.90;;;;;;816517;173;26405;-80
2024/03/06 07:17:33;;;;;;;16.40;8.97;;;6.10;99.90;;;;;;819949;174;27003;-80
2024/03/06 07:19:59;;;;;;;26.97;9.60;;;6.10;99.90;;;;;;816556;174;26425;-80
2024/03/06 07:22:26;;;;;;;12.93;7.43;;;6.10;99.90;;;;;;818197;173;26495;-80
2024/03/06 07:24:53;;;;;;;18.07;8.43;;;6.10;99.90;;;;;;816807;174;26396;-81
2024/03/06 07:27:19;;;;;;;19.43;11.07;;;6.20;99.90;;;;;;819186;173;26428;-80
2024/03/06 07:29:46;;;;;;;15.67;8.33;;;6.30;99.90;;;;;;814199;174;26438;-81
2024/03/06 07:32:13;;;;;;;12.80;8.33;;;6.30;99.90;;;;;;819910;174;26408;-80
2024/03/06 07:34:39;;;;;;;26.97;8.87;;;6.40;99.90;;;;;;822350;174;26408;-80
2024/03/06 07:37:06;;;;;;;25.27;9.70;;;6.40;99.90;;;;;;816879;174;26448;-80
2024/03/06 07:39:34;;;;;;;24.83;8.33;;;6.50;99.90;;;;;;818640;174;26683;-81
2024/03/06 07:41:59;;;;;;;12.37;8.67;;;6.40;99.90;;;;;;815595;173;26417;-81
2024/03/06 07:44:26;;;;;;;14.60;7.80;;;6.50;99.90;;;;;;820161;174;26410;-81
2024/03/06 07:46:54;;;;;;;16.93;9.07;;;6.50;99.90;;;;;;813849;174;26469;-81
2024/03/06 07:49:21;;;;;;;21.63;9.63;;;6.50;99.90;;;;;;826257;174;26408;-80
2024/03/06 07:51:46;;;;;;;15.13;9.00;;;6.60;99.90;;;;;;819986;174;26410;-81
2024/03/06 07:54:13;;;;;;;12.83;9.03;;;6.60;99.90;;;;;;818297;174;26444;-81
2024/03/06 07:56:39;;;;;;;15.43;9.30;;;6.60;99.90;;;;;;815318;174;26426;-81
2024/03/06 07:59:06;;;;;;;20.30;9.37;;;6.70;99.90;;;;;;821123;174;26437;-80
2024/03/06 08:01:34;;;;;;;17.40;8.93;;;6.80;99.90;;;;;;819351;174;26412;-79
2024/03/06 08:04:00;;;;;;;18.07;10.03;;;6.80;99.90;;;;;;815322;174;26567;-79
2024/03/06 08:06:29;;;;;;;14.33;8.90;;;6.90;99.90;;;;;;819870;174;26432;-80
2024/03/06 08:08:53;;;;;;;18.37;9.83;;;7.00;99.90;;;;;;822647;174;26412;-81
2024/03/06 08:11:21;;;;;;;17.07;10.23;;;7.10;99.90;;;;;;822060;174;26413;-79
2024/03/06 08:13:47;;;;;;;16.23;10.33;;;7.20;99.90;;;;;;818597;174;26416;-79
2024/03/06 08:16:13;;;;;;;14.30;10.43;;;7.10;99.90;;;;;;821282;173;26431;-80
2024/03/06 08:18:40;;;;;;;20.73;11.43;;;7.10;99.90;;;;;;818298;174;26426;-81
2024/03/06 08:21:07;;;;;;;19.77;10.70;;;7.20;99.90;;;;;;810370;174;26456;-81
2024/03/06 08:23:33;;;;;;;17.03;11.13;;;7.20;99.90;;;;;;817514;174;26425;-82
2024/03/06 08:26:00;;;;;;;19.77;12.07;;;7.30;99.90;;;;;;820478;173;27658;-80
2024/03/06 08:28:27;;;;;;;22.80;13.53;;;7.40;99.90;;;;;;822271;173;26462;-81
2024/03/06 08:30:54;;;;;;;23.87;13.47;;;7.50;99.90;;;;;;823502;173;26437;-81
2024/03/06 08:33:22;;;;;;;21.20;13.63;;;7.60;99.90;;;;;;815259;173;26429;-78
2024/03/06 08:35:47;;;;;;;22.77;13.70;;;7.70;99.90;;;;;;818978;173;26573;-79
2024/03/06 08:38:13;;;;;;;22.73;14.83;;;7.60;99.90;;;;;;818240;174;26963;-82
2024/03/06 08:40:45;;;;;;;22.67;13.83;;;7.60;99.90;;;;;;812736;174;26474;-81
2024/03/06 08:43:08;;;;;;;24.87;14.33;;;7.70;99.90;;;;;;818280;174;26457;-81
2024/03/06 08:45:34;;;;;;;21.07;13.50;;;7.60;99.90;;;;;;813743;174;26416;-78
2024/03/06 08:48:00;;;;;;;24.30;13.23;;;7.70;99.90;;;;;;817464;174;27666;-81
2024/03/06 08:50:27;;;;;;;31.97;15.83;;;7.80;99.90;;;;;;814681;173;26418;-81
2024/03/06 08:52:53;;;;;;;30.23;16.23;;;7.90;99.90;;;;;;820428;173;26961;-82
2024/03/06 08:55:20;;;;;;;23.77;14.50;;;8.00;99.90;;;;;;823500;174;26412;-81
2024/03/06 08:57:47;;;;;;;22.87;14.60;;;8.10;99.90;;;;;;817630;174;26578;-81
2024/03/06 09:00:15;;;;;;;21.53;14.70;;;8.10;99.90;;;;;;817610;174;26426;-80
2024/03/06 09:02:41;;;;;;;24.43;14.67;;;8.20;99.90;;;;;;818381;174;26404;-80
2024/03/06 09:05:10;;;;;;;28.43;16.27;;;8.30;99.90;;;;;;817953;174;26469;-78
2024/03/06 09:07:37;;;;;;;26.23;17.33;;;8.40;99.90;;;;;;807056;173;26472;-78
2024/03/06 09:10:01;;;;;;;25.37;14.17;;;8.50;99.90;;;;;;816280;176;26522;-78
2024/03/06 09:12:27;;;;;;;21.57;13.30;;;8.60;99.90;;;;;;802223;179;26427;-78
2024/03/06 09:14:54;;;;;;;19.87;12.57;;;8.80;99.90;;;;;;798860;176;26451;-79
2024/03/06 09:17:20;;;;;;;24.47;13.30;;;8.80;99.90;;;;;;805568;176;26474;-78
2024/03/06 09:19:47;;;;;;;20.10;12.83;;;8.90;99.90;;;;;;805449;178;26445;-78
2024/03/06 09:22:14;;;;;;;23.97;14.53;;;9.00;99.90;;;;;;805691;177;26419;-78
2024/03/06 09:24:40;;;;;;;18.53;11.07;;;9.10;99.90;;;;;;803588;177;26430;-79
2024/03/06 09:27:07;;;;;;;23.53;13.10;;;9.00;99.90;;;;;;806395;174;26473;-78
2024/03/06 09:29:34;;;;;;;27.70;13.50;;;9.20;99.90;;;;;;809095;177;26400;-79
2024/03/06 09:32:00;;;;;;;23.07;13.00;;;9.40;99.90;;;;;;804124;177;26447;-78
2024/03/06 09:34:27;;;;;;;23.87;14.23;;;9.40;99.90;;;;;;804225;177;26521;-79
2024/03/06 09:36:53;;;;;;;20.93;11.87;;;9.50;99.90;;;;;;806956;175;26607;-80
2024/03/06 09:39:20;;;;;;;20.80;12.50;;;9.60;99.90;;;;;;810533;177;26424;-79
2024/03/06 09:41:46;;;;;;;18.53;12.07;;;9.80;99.90;;;;;;806043;176;26449;-79
2024/03/06 09:44:13;;;;;;;18.20;11.43;;;9.80;99.90;;;;;;809686;177;26582;-79
2024/03/06 09:46:40;;;;;;;16.47;10.87;;;9.90;99.90;;;;;;802308;177;26448;-80
2024/03/06 09:49:07;;;;;;;19.03;12.23;;;10.00;99.90;;;;;;806554;176;26460;-79
2024/03/06 09:51:34;;;;;;;15.53;10.53;;;10.10;99.90;;;;;;811198;177;26432;-78
2024/03/06 09:54:00;;;;;;;18.13;10.30;;;10.10;99.90;;;;;;805219;177;26447;-78
2024/03/06 09:56:27;;;;;;;16.10;11.23;;;10.30;99.90;;;;;;806866;177;26449;-78
2024/03/06 09:58:53;;;;;;;16.57;11.03;;;10.40;99.90;;;;;;803971;177;26458;-78
2024/03/06 10:01:20;;;;;;;16.50;11.00;;;10.40;99.90;;;;;;806457;177;26579;-79
2024/03/06 10:03:47;;;;;;;19.13;11.07;;;10.40;99.90;;;;;;807624;177;26454;-79
2024/03/06 10:06:13;;;;;;;18.53;12.63;;;10.30;99.90;;;;;;803389;174;26496;-78
2024/03/06 10:08:43;;;;;;;19.53;12.00;;;10.40;99.90;;;;;;808274;177;26442;-79
2024/03/06 10:11:10;;;;;;;20.90;12.97;;;10.30;99.90;;;;;;809527;177;26478;-79
2024/03/06 10:13:36;;;;;;;22.03;12.80;;;10.40;99.90;;;;;;806492;177;26448;-78
2024/03/06 10:16:03;;;;;;;21.93;12.67;;;10.40;99.90;;;;;;802643;177;28011;-78
2024/03/06 10:18:30;;;;;;;21.73;12.80;;;10.30;99.90;;;;;;806822;177;26417;-78
2024/03/06 10:20:57;;;;;;;21.87;12.87;;;10.30;99.90;;;;;;800006;177;26444;-79
2024/03/06 10:23:24;;;;;;;23.17;13.80;;;10.60;99.90;;;;;;800882;177;26433;-79
2024/03/06 10:25:52;;;;;;;19.47;13.37;;;10.70;99.90;;;;;;805229;177;26417;-79
2024/03/06 10:28:20;;;;;;;24.10;14.77;;;10.90;99.90;;;;;;806032;177;26445;-79
2024/03/06 10:30:46;;;;;;;21.53;13.87;;;10.70;99.90;;;;;;798747;177;26446;-78
2024/03/06 10:33:13;;;;;;;23.57;12.90;;;11.00;99.90;;;;;;803543;177;26425;-78
2024/03/06 10:35:40;;;;;;;25.07;14.47;;;11.10;99.90;;;;;;803423;177;26444;-78
2024/03/06 10:38:07;;;;;;;24.27;14.77;;;11.20;99.90;;;;;;804261;177;26492;-78
2024/03/06 10:40:35;;;;;;;26.30;15.47;;;11.40;99.90;;;;;;806870;177;26429;-77
2024/03/06 10:43:02;;;;;;;25.63;13.97;;;11.30;99.90;;;;;;807115;177;26436;-78
2024/03/06 10:45:49;;;;;;;24.37;15.60;;;11.40;99.90;;;;;;803946;177;26449;-78
2024/03/06 10:48:15;;;;;;;24.83;14.67;;;11.40;99.90;;;;;;807677;175;26464;-79
2024/03/06 10:50:44;;;;;;;23.80;15.13;;;11.60;99.90;;;;;;808202;177;26468;-78
2024/03/06 10:53:10;;;;;;;24.20;15.67;;;11.50;99.90;;;;;;807366;174;26445;-79
2024/03/06 10:55:37;;;;;;;21.10;12.97;;;11.80;99.90;;;;;;806519;177;26947;-79
2024/03/06 10:58:08;;;;;;;21.90;13.63;;;12.40;99.90;;;;;;803781;177;26456;-79
2024/03/06 11:00:33;;;;;;;23.37;14.40;;;13.70;99.90;;;;;;811782;176;26421;-79
2024/03/06 11:02:59;;;;;;;24.70;16.77;;;15.10;99.90;;;;;;801877;177;26468;-78
2024/03/06 11:05:26;;;;;;;29.20;17.53;;;15.00;97.80;;;;;;808315;177;26467;-79
2024/03/06 11:07:52;;;;;;;27.97;18.23;;;14.80;98.90;;;;;;805539;177;26449;-79
2024/03/06 11:10:34;;;;;;;28.17;19.17;;;16.20;97.70;;;;;;803868;177;26425;-80
2024/03/06 11:13:02;;;;;;;29.27;18.97;;;17.00;96.60;;;;;;804301;177;26698;-79
2024/03/06 11:15:28;;;;;;;25.67;18.47;;;17.60;91.90;;;;;;804089;177;26437;-80
2024/03/06 11:17:56;;;;;;;25.03;18.57;;;18.00;91.10;;;;;;805437;177;26465;-79
2024/03/06 11:20:25;;;;;;;29.20;19.73;;;17.30;92.70;;;;;;807285;177;26452;-80
2024/03/06 11:23:10;;;;;;;24.10;19.23;;;18.00;88.70;;;;;;806415;177;26429;-79
2024/03/06 11:25:58;;;;;;;31.70;20.43;;;18.30;93.10;;;;;;806482;177;26419;-79
2024/03/06 11:28:27;;;;;;;29.60;19.93;;;18.60;76.90;;;;;;800545;177;26465;-81
2024/03/06 11:30:58;;;;;;;29.60;19.90;;;19.10;81.10;;;;;;801356;177;26956;-79
2024/03/06 11:33:23;;;;;;;29.33;20.97;;;19.80;75.80;;;;;;808258;177;26430;-79
2024/03/06 11:36:01;;;;;;;26.93;20.13;;;19.30;89.10;;;;;;804223;177;26493;-79
2024/03/06 11:38:28;;;;;;;25.50;19.40;;;18.40;81.70;;;;;;806915;177;26421;-79
2024/03/06 11:40:54;;;;;;;25.13;19.00;;;19.20;78.20;;;;;;809772;177;26444;-80
2024/03/06 11:43:24;;;;;;;29.77;19.07;;;19.60;83.90;;;;;;805325;177;26429;-80
2024/03/06 11:45:49;;;;;;;30.47;18.50;;;20.10;75.80;;;;;;804253;174;26424;-80
2024/03/06 11:48:17;;;;;;;27.83;19.00;;;20.90;56.10;;;;;;804731;176;26444;-79
2024/03/06 11:50:43;;;;;;;24.70;18.93;;;20.40;60.80;;;;;;804668;177;26425;-80
2024/03/06 11:53:10;;;;;;;25.20;19.90;;;21.00;64.40;;;;;;808945;177;26574;-80
2024/03/06 11:55:36;;;;;;;25.97;18.73;;;19.50;77.50;;;;;;808846;177;26467;-79
2024/03/06 11:58:03;;;;;;;31.77;24.23;;;20.00;66.50;;;;;;808716;176;26436;-78
2024/03/06 12:00:30;;;;;;;23.30;18.27;;;21.20;67.00;;;;;;808705;176;26440;-78
2024/03/06 12:02:57;;;;;;;26.93;19.13;;;20.80;64.20;;;;;;812722;177;26460;-79
2024/03/06 12:05:25;;;;;;;23.57;17.20;;;18.70;66.40;;;;;;812080;177;26452;-79
2024/03/06 12:07:50;;;;;;;22.20;17.40;;;19.90;58.90;;;;;;810463;177;27010;-79
2024/03/06 12:10:17;;;;;;;23.40;18.30;;;19.40;63.30;;;;;;803652;177;26446;-78
2024/03/06 12:12:44;;;;;;;27.30;18.70;;;18.80;76.40;;;;;;803752;176;26981;-79
2024/03/06 12:15:11;;;;;;;29.87;17.93;;;17.50;83.60;;;;;;811381;177;26425;-79
2024/03/06 12:17:46;;;;;;;27.73;20.57;;;16.50;91.20;;;;;;807898;177;26470;-79
2024/03/06 12:20:15;;;;;;;27.77;19.80;;;16.40;90.00;;;;;;803498;177;26413;-79
2024/03/06 12:22:48;;;;;;;27.80;20.20;;;16.40;91.10;;;;;;810696;177;26486;-79
2024/03/06 12:25:19;;;;;;;26.43;19.20;;;16.40;93.80;;;;;;805357;177;26420;-79
2024/03/06 12:27:44;;;;;;;35.17;21.23;;;15.80;89.90;;;;;;811320;177;26453;-79
2024/03/06 12:30:13;;;;;;;27.33;18.97;;;16.70;86.80;;;;;;802669;177;26443;-79
2024/03/06 12:32:38;;;;;;;26.17;18.20;;;16.90;90.50;;;;;;808323;176;26450;-79
2024/03/06 12:35:05;;;;;;;23.80;17.03;;;17.70;86.00;;;;;;806175;177;26424;-79